createdAt,value
2023-04-03T00:01:11.475Z,99272.66
2023-04-03T00:03:14.122Z,99274.59
2023-04-03T00:05:16.901Z,99271.84
2023-04-03T00:07:19.589Z,99272.97
2023-04-03T00:09:22.267Z,99272.97
2023-04-03T00:11:25.006Z,99278.72
2023-04-03T00:13:27.696Z,99277.91
2023-04-03T00:15:30.550Z,99272.47
2023-04-03T00:17:33.268Z,99268.09
2023-04-03T00:19:36.361Z,99271.66
2023-04-03T00:21:39.729Z,99274.69
2023-04-03T00:23:42.622Z,99268.41
2023-04-03T00:25:45.721Z,99270.03
2023-04-03T00:27:48.537Z,99259.81
2023-04-03T00:29:51.230Z,99265.38
2023-04-03T00:31:53.849Z,99261.84
2023-04-03T00:33:56.725Z,99261.84
2023-04-03T00:35:59.518Z,99263.47
2023-04-03T00:38:02.330Z,99264.28
2023-04-03T00:40:06.429Z,99265.59
2023-04-03T00:42:08.958Z,99259.63
2023-04-03T00:44:29.952Z,99260.75
2023-04-03T00:46:32.544Z,99267.91
2023-04-03T00:48:38.121Z,99262.53
2023-04-03T00:50:42.758Z,99257.38
2023-04-03T00:52:47.796Z,99264.13
2023-04-03T00:54:53.434Z,99258.97
2023-04-03T00:56:58.627Z,99266.69
2023-04-03T00:59:31.475Z,99265.34
2023-04-03T01:01:34.281Z,99260.78
2023-04-03T01:03:37.484Z,99264.31
2023-04-03T01:05:42.059Z,99269.25
2023-04-03T01:07:46.228Z,99260.84
2023-04-03T01:09:51.793Z,99260.66
2023-04-03T01:11:54.498Z,99262.56
2023-04-03T01:13:57.299Z,99268.03
2023-04-03T01:16:05.082Z,99264.78
2023-04-03T01:18:11.556Z,99261.81
2023-04-03T01:20:32.501Z,99268.66
2023-04-03T01:22:55.683Z,99264.09
2023-04-03T01:24:58.276Z,99264.69
2023-04-03T01:27:04.001Z,99258.50
2023-04-03T01:29:06.784Z,99261.22
2023-04-03T01:31:24.492Z,99267.00
2023-04-03T01:33:27.601Z,99262.44
2023-04-03T01:35:30.230Z,99263.81
2023-04-03T01:37:32.895Z,99262.88
2023-04-03T01:39:35.768Z,99266.47
2023-04-03T01:41:38.573Z,99267.28
2023-04-03T01:43:41.264Z,99279.59
2023-04-03T01:45:44.292Z,99275.00
2023-04-03T01:47:47.091Z,99280.53
2023-04-03T01:49:49.675Z,99276.25
2023-04-03T01:51:52.315Z,99278.44
2023-04-03T01:53:55.045Z,99281.78
2023-04-03T01:55:57.701Z,99272.34
2023-04-03T01:58:00.498Z,99273.16
2023-04-03T02:00:03.374Z,99274.81
2023-04-03T02:02:07.074Z,99273.22
2023-04-03T02:04:09.913Z,99266.44
2023-04-03T02:06:12.991Z,99269.44
2023-04-03T02:08:15.925Z,99266.50
2023-04-03T02:10:18.654Z,99267.06
2023-04-03T02:12:21.323Z,99273.91
2023-04-03T02:14:24.847Z,99259.56
2023-04-03T02:16:47.328Z,99263.69
2023-04-03T02:18:49.996Z,99262.63
2023-04-03T02:20:52.645Z,99268.38
2023-04-03T02:22:55.232Z,99265.94
2023-04-03T02:24:58.020Z,99266.81
2023-04-03T02:27:00.860Z,99265.19
2023-04-03T02:29:03.957Z,99265.78
2023-04-03T02:31:09.416Z,99266.34
2023-04-03T02:33:12.225Z,99270.97
2023-04-03T02:35:15.001Z,99265.03
2023-04-03T02:37:17.796Z,99263.69
2023-04-03T02:39:20.486Z,99261.47
2023-04-03T02:41:23.250Z,99260.97
2023-04-03T02:43:25.971Z,99262.06
2023-04-03T02:45:28.554Z,99271.88
2023-04-03T02:47:31.253Z,99265.31
2023-04-03T02:49:33.906Z,99262.59
2023-04-03T02:51:36.686Z,99263.19
2023-04-03T02:53:39.323Z,99262.31
2023-04-03T02:55:42.028Z,99257.94
2023-04-03T02:57:44.745Z,99269.09
2023-04-03T02:59:47.402Z,99254.94
2023-04-03T03:01:50.140Z,99257.88
2023-04-03T03:03:52.765Z,99255.41
2023-04-03T03:06:06.580Z,99263.78
2023-04-03T03:08:09.267Z,99252.34
2023-04-03T03:10:11.966Z,99256.38
2023-04-03T03:12:15.865Z,99255.53
2023-04-03T03:14:18.623Z,99256.25
2023-04-03T03:16:21.486Z,99247.22
2023-04-03T03:18:24.554Z,99255.03
2023-04-03T03:20:27.201Z,99260.41
2023-04-03T03:22:31.811Z,99258.72
2023-04-03T03:24:35.203Z,99269.84
2023-04-03T03:26:38.596Z,99258.13
2023-04-03T03:28:42.005Z,99262.69
2023-04-03T03:30:45.176Z,99275.97
2023-04-03T03:32:50.488Z,99276.50
2023-04-03T03:34:53.301Z,99276.69
2023-04-03T03:36:56.551Z,99270.38
2023-04-03T03:38:59.125Z,99272.00
2023-04-03T03:41:01.715Z,99279.00
2023-04-03T03:43:04.802Z,99278.41
2023-04-03T03:45:08.234Z,99282.16
2023-04-03T03:47:11.949Z,99281.59
2023-04-03T03:49:14.591Z,99288.03
2023-04-03T03:51:17.853Z,99284.16
2023-04-03T03:53:20.817Z,99270.81
2023-04-03T03:55:23.585Z,99276.41
2023-04-03T03:57:28.213Z,99276.31
2023-04-03T03:59:31.171Z,99278.16
2023-04-03T04:01:34.321Z,99276.50
2023-04-03T04:03:37.163Z,99263.56
2023-04-03T04:05:40.349Z,99263.53
2023-04-03T04:07:43.205Z,99271.63
2023-04-03T04:09:46.147Z,99280.50
2023-04-03T04:11:48.873Z,99274.44
2023-04-03T04:13:51.485Z,99273.88
2023-04-03T04:15:54.162Z,99272.66
2023-04-03T04:17:56.936Z,99276.69
2023-04-03T04:19:59.668Z,99276.63
2023-04-03T04:22:02.228Z,99284.41
2023-04-03T04:24:05.114Z,99278.06
2023-04-03T04:26:07.687Z,99276.34
2023-04-03T04:28:10.516Z,99284.44
2023-04-03T04:30:14.187Z,99277.56
2023-04-03T04:32:16.847Z,99276.88
2023-04-03T04:34:19.588Z,99274.06
2023-04-03T04:36:22.563Z,99272.53
2023-04-03T04:38:26.481Z,99266.16
2023-04-03T04:40:29.250Z,99274.25
2023-04-03T04:42:31.952Z,99275.66
2023-04-03T04:44:34.713Z,99277.00
2023-04-03T04:46:37.389Z,99284.78
2023-04-03T04:48:40.123Z,99278.22
2023-04-03T04:50:42.718Z,99284.66
2023-04-03T04:52:45.359Z,99281.53
2023-04-03T04:54:48.006Z,99283.69
2023-04-03T04:56:50.674Z,99268.25
2023-04-03T04:58:53.253Z,99283.44
2023-04-03T05:01:03.484Z,99271.88
2023-04-03T05:03:06.537Z,99284.84
2023-04-03T05:05:10.157Z,99285.53
2023-04-03T05:07:13.062Z,99288.34
2023-04-03T05:09:15.974Z,99280.53
2023-04-03T05:11:18.685Z,99280.13
2023-04-03T05:13:21.942Z,99285.13
2023-04-03T05:15:24.976Z,99284.72
2023-04-03T05:17:27.618Z,99287.03
2023-04-03T05:19:30.512Z,99288.53
2023-04-03T05:21:33.726Z,99284.38
2023-04-03T05:23:36.455Z,99289.22
2023-04-03T05:25:40.102Z,99287.34
2023-04-03T05:27:42.800Z,99280.31
2023-04-03T05:29:45.619Z,99280.66
2023-04-03T05:31:50.917Z,99284.91
2023-04-03T05:33:53.617Z,99278.69
2023-04-03T05:35:56.454Z,99277.44
2023-04-03T05:37:59.321Z,99289.06
2023-04-03T05:40:02.407Z,99280.25
2023-04-03T05:42:06.241Z,99286.38
2023-04-03T05:44:08.947Z,99279.16
2023-04-03T05:46:17.717Z,99282.41
2023-04-03T05:48:20.557Z,99285.03
2023-04-03T05:50:23.522Z,99289.06
2023-04-03T05:52:36.459Z,99281.00
2023-04-03T05:54:39.233Z,99289.91
2023-04-03T05:56:42.122Z,99296.25
2023-04-03T05:58:46.297Z,99286.41
2023-04-03T06:00:49.658Z,99285.47
2023-04-03T06:02:52.428Z,99281.94
2023-04-03T06:04:55.220Z,99293.38
2023-04-03T06:06:59.157Z,99286.78
2023-04-03T06:09:03.731Z,99290.69
2023-04-03T06:11:06.956Z,99293.59
2023-04-03T06:13:09.544Z,99291.53
2023-04-03T06:15:12.946Z,99285.88
2023-04-03T06:17:17.297Z,99293.28
2023-04-03T06:19:20.066Z,99284.75
2023-04-03T06:21:22.820Z,99281.34
2023-04-03T06:23:25.728Z,99296.84
2023-04-03T06:25:28.773Z,99289.13
2023-04-03T06:27:31.500Z,99285.88
2023-04-03T06:29:34.437Z,99285.22
2023-04-03T06:31:40.904Z,99298.00
2023-04-03T06:33:43.678Z,99291.03
2023-04-03T06:35:46.886Z,99280.25
2023-04-03T06:37:49.803Z,99281.03
2023-04-03T06:39:52.468Z,99277.16
2023-04-03T06:41:55.039Z,99286.69
2023-04-03T06:43:59.149Z,99285.72
2023-04-03T06:46:02.264Z,99285.56
2023-04-03T06:48:05.253Z,99286.66
2023-04-03T06:50:08.476Z,99283.59
2023-04-03T06:52:13.269Z,99299.56
2023-04-03T06:54:16.195Z,99284.88
2023-04-03T06:56:19.213Z,99294.53
2023-04-03T06:58:23.370Z,99301.28
2023-04-03T07:00:27.223Z,99299.63
2023-04-03T07:02:29.855Z,99289.44
2023-04-03T07:04:32.758Z,99302.16
2023-04-03T07:06:36.143Z,99299.88
2023-04-03T07:08:39.327Z,99297.22
2023-04-03T07:10:42.185Z,99300.72
2023-04-03T07:12:45.099Z,99300.19
2023-04-03T07:14:48.165Z,99299.84
2023-04-03T07:16:50.867Z,99300.00
2023-04-03T07:18:53.736Z,99295.25
2023-04-03T07:20:56.970Z,99288.75
2023-04-03T07:23:00.434Z,99305.53
2023-04-03T07:25:04.691Z,99290.91
2023-04-03T07:27:09.542Z,99299.09
2023-04-03T07:29:12.385Z,99294.38
2023-04-03T07:31:15.976Z,99307.47
2023-04-03T07:33:20.927Z,99306.13
2023-04-03T07:35:23.706Z,99295.00
2023-04-03T07:37:26.388Z,99307.22
2023-04-03T07:39:29.283Z,99298.66
2023-04-03T07:41:32.286Z,99302.19
2023-04-03T07:43:35.592Z,99301.88
2023-04-03T07:45:38.451Z,99308.44
2023-04-03T07:47:41.780Z,99304.44
2023-04-03T07:49:44.995Z,99304.94
2023-04-03T07:51:47.896Z,99299.00
2023-04-03T07:53:50.509Z,99302.34
2023-04-03T07:55:56.615Z,99297.63
2023-04-03T07:57:59.339Z,99300.41
2023-04-03T08:00:02.637Z,99299.94
2023-04-03T08:02:07.036Z,99298.91
2023-04-03T08:04:09.772Z,99302.38
2023-04-03T08:06:16.207Z,99298.59
2023-04-03T08:08:24.570Z,99306.44
2023-04-03T08:10:27.431Z,99307.13
2023-04-03T08:12:31.015Z,99303.94
2023-04-03T08:14:35.866Z,99302.91
2023-04-03T08:16:38.555Z,99303.22
2023-04-03T08:18:41.276Z,99307.03
2023-04-03T08:20:44.691Z,99313.38
2023-04-03T08:22:47.569Z,99293.59
2023-04-03T08:24:58.710Z,99303.13
2023-04-03T08:27:02.393Z,99305.31
2023-04-03T08:29:05.157Z,99291.81
2023-04-03T08:31:12.216Z,99294.00
2023-04-03T08:33:14.926Z,99299.72
2023-04-03T08:35:17.771Z,99297.56
2023-04-03T08:37:20.953Z,99303.63
2023-04-03T08:39:23.606Z,99299.03
2023-04-03T08:41:41.052Z,99306.59
2023-04-03T08:44:26.254Z,99301.28
2023-04-03T08:46:57.459Z,99303.13
2023-04-03T08:49:01.308Z,99298.25
2023-04-03T08:51:13.118Z,99304.53
2023-04-03T08:53:16.798Z,99301.94
2023-04-03T08:55:56.646Z,99306.44
2023-04-03T08:58:06.337Z,99305.38
2023-04-03T09:00:23.647Z,99303.84
2023-04-03T09:02:50.836Z,99305.69
2023-04-03T09:04:54.534Z,99302.56
2023-04-03T09:07:04.940Z,99304.59
2023-04-03T09:09:29.264Z,99303.56
2023-04-03T09:11:40.669Z,99305.78
2023-04-03T09:14:02.312Z,99312.41
2023-04-03T09:16:21.360Z,99303.22
2023-04-03T09:18:34.072Z,99300.09
2023-04-03T09:21:02.823Z,99301.63
2023-04-03T09:23:37.782Z,99285.66
2023-04-03T09:25:40.861Z,99290.00
2023-04-03T09:27:43.770Z,99306.78
2023-04-03T09:29:47.329Z,99299.34
2023-04-03T09:31:54.367Z,99305.50
2023-04-03T09:34:03.510Z,99303.59
2023-04-03T09:36:07.111Z,99300.91
2023-04-03T09:38:12.894Z,99307.44
2023-04-03T09:40:27.562Z,99311.56
2023-04-03T09:42:32.344Z,99307.31
2023-04-03T09:44:38.062Z,99305.44
2023-04-03T09:46:41.005Z,99313.53
2023-04-03T09:51:17.088Z,99305.81
2023-04-03T09:53:49.169Z,99312.66
2023-04-03T09:55:51.911Z,99301.88
2023-04-03T09:58:01.231Z,99315.16
2023-04-03T10:00:06.856Z,99316.09
2023-04-03T10:02:37.608Z,99320.13
2023-04-03T10:04:42.992Z,99321.28
2023-04-03T10:06:54.490Z,99323.78
2023-04-03T10:09:02.230Z,99311.59
2023-04-03T10:11:15.816Z,99311.28
2023-04-03T10:13:22.517Z,99310.47
2023-04-03T10:15:29.757Z,99313.19
2023-04-03T10:17:56.718Z,99299.66
2023-04-03T10:20:04.833Z,99315.06
2023-04-03T10:22:21.892Z,99300.41
2023-04-03T10:24:24.602Z,99309.75
2023-04-03T10:26:39.108Z,99311.91
2023-04-03T10:28:57.992Z,99301.78
2023-04-03T10:31:03.642Z,99310.94
2023-04-03T10:33:27.780Z,99306.84
2023-04-03T10:35:41.027Z,99313.28
2023-04-03T10:37:59.417Z,99319.94
2023-04-03T10:40:32.417Z,99312.84
2023-04-03T10:42:48.641Z,99308.97
2023-04-03T10:45:06.643Z,99307.06
2023-04-03T10:47:46.173Z,99312.97
2023-04-03T10:50:16.800Z,99310.00
2023-04-03T10:52:41.534Z,99308.16
2023-04-03T10:55:08.764Z,99314.75
2023-04-03T10:57:13.953Z,99307.75
2023-04-03T10:59:17.533Z,99317.03
2023-04-03T11:01:25.455Z,99313.63
2023-04-03T11:03:37.103Z,99308.19
2023-04-03T11:05:45.348Z,99309.16
2023-04-03T11:07:53.058Z,99311.94
2023-04-03T11:10:04.762Z,99311.19
2023-04-03T11:12:42.303Z,99307.72
2023-04-03T11:14:46.114Z,99300.88
2023-04-03T11:16:54.949Z,99302.53
2023-04-03T11:19:15.963Z,99300.09
2023-04-03T11:21:46.990Z,99301.94
2023-04-03T11:23:51.343Z,99304.34
2023-04-03T11:25:57.968Z,99308.25
2023-04-03T11:28:03.632Z,99298.38
2023-04-03T11:30:11.588Z,99305.19
2023-04-03T11:32:46.207Z,99304.44
2023-04-03T11:34:51.914Z,99306.97
2023-04-03T11:37:03.180Z,99304.16
2023-04-03T11:39:22.510Z,99309.03
2023-04-03T11:41:34.086Z,99303.63
2023-04-03T11:43:42.104Z,99313.97
2023-04-03T11:45:54.905Z,99297.66
2023-04-03T11:48:04.852Z,99299.00
2023-04-03T11:50:43.692Z,99305.84
2023-04-03T11:52:47.899Z,99301.16
2023-04-03T11:54:50.872Z,99307.22
2023-04-03T11:56:53.593Z,99301.72
2023-04-03T11:59:14.818Z,99299.38
2023-04-03T12:01:51.793Z,99302.09
2023-04-03T12:03:59.655Z,99296.59
2023-04-03T12:06:08.390Z,99299.03
2023-04-03T12:08:25.816Z,99297.50
2023-04-03T12:10:32.296Z,99288.06
2023-04-03T12:12:37.298Z,99298.41
2023-04-03T12:14:40.110Z,99295.63
2023-04-03T12:16:42.745Z,99287.03
2023-04-03T12:19:01.741Z,99292.38
2023-04-03T12:21:06.116Z,99292.41
2023-04-03T12:23:30.346Z,99283.69
2023-04-03T12:25:51.220Z,99291.28
2023-04-03T12:27:54.436Z,99288.94
2023-04-03T12:30:05.878Z,99291.00
2023-04-03T12:32:14.208Z,99293.00
2023-04-03T12:34:33.013Z,99291.53
2023-04-03T12:36:42.183Z,99292.81
2023-04-03T12:39:04.693Z,99287.59
2023-04-03T12:41:19.130Z,99284.78
2023-04-03T12:43:43.356Z,99283.97
2023-04-03T12:46:03.228Z,99286.00
2023-04-03T12:48:13.598Z,99280.84
2023-04-03T12:50:35.119Z,99294.00
2023-04-03T12:52:42.816Z,99290.00
2023-04-03T12:54:47.971Z,99288.91
2023-04-03T12:56:51.716Z,99286.97
2023-04-03T12:58:56.781Z,99286.97
2023-04-03T13:01:13.354Z,99289.25
2023-04-03T13:03:25.582Z,99291.59
2023-04-03T13:05:29.567Z,99293.25
2023-04-03T13:07:39.197Z,99293.69
2023-04-03T13:09:42.100Z,99296.94
2023-04-03T13:11:46.942Z,99288.56
2023-04-03T13:14:00.981Z,99287.78
2023-04-03T13:16:11.633Z,99282.56
2023-04-03T13:18:27.218Z,99287.75
2023-04-03T13:20:33.362Z,99278.16
2023-04-03T13:22:45.850Z,99290.53
2023-04-03T13:24:52.135Z,99287.63
2023-04-03T13:26:55.030Z,99283.22
2023-04-03T13:29:05.831Z,99274.44
2023-04-03T13:31:15.482Z,99278.00
2023-04-03T13:33:26.211Z,99284.13
2023-04-03T13:35:34.027Z,99287.31
2023-04-03T13:37:36.771Z,99286.06
2023-04-03T13:39:40.448Z,99284.84
2023-04-03T13:42:22.892Z,99286.91
2023-04-03T13:44:34.355Z,99276.22
2023-04-03T13:46:36.802Z,99287.38
2023-04-03T13:48:46.623Z,99285.78
2023-04-03T13:51:02.877Z,99283.78
2023-04-03T13:53:15.681Z,99285.41
2023-04-03T13:55:48.398Z,99285.41
2023-04-03T13:58:04.254Z,99293.78
2023-04-03T14:00:34.747Z,99278.59
2023-04-03T14:02:40.709Z,99298.59
2023-04-03T14:04:46.089Z,99289.81
2023-04-03T14:06:49.369Z,99292.19
2023-04-03T14:08:53.104Z,99289.78
2023-04-03T14:10:56.282Z,99289.38
2023-04-03T14:12:58.965Z,99288.56
2023-04-03T14:15:03.082Z,99288.56
2023-04-03T14:17:24.531Z,99294.94
2023-04-03T14:19:33.218Z,99292.13
2023-04-03T14:21:35.829Z,99294.50
2023-04-03T14:23:38.976Z,99280.97
2023-04-03T14:25:42.889Z,99288.97
2023-04-03T14:27:50.820Z,99295.75
2023-04-03T14:29:54.816Z,99289.38
2023-04-03T14:32:11.554Z,99293.34
2023-04-03T14:34:17.366Z,99289.75
2023-04-03T14:36:24.520Z,99292.47
2023-04-03T14:38:30.328Z,99292.78
2023-04-03T14:40:32.982Z,99289.53
2023-04-03T14:42:38.035Z,99288.59
2023-04-03T14:44:40.716Z,99291.31
2023-04-03T14:46:56.039Z,99288.78
2023-04-03T14:49:00.074Z,99291.34
2023-04-03T14:51:06.061Z,99287.53
2023-04-03T14:53:09.249Z,99294.44
2023-04-03T14:55:15.730Z,99292.81
2023-04-03T14:57:19.029Z,99284.97
2023-04-03T14:59:22.778Z,99288.31
2023-04-03T15:01:27.038Z,99286.81
2023-04-03T15:03:30.100Z,99290.88
2023-04-03T15:05:32.834Z,99296.16
2023-04-03T15:07:41.853Z,99282.44
2023-04-03T15:09:44.712Z,99286.31
2023-04-03T15:11:48.132Z,99292.88
2023-04-03T15:13:50.922Z,99291.88
2023-04-03T15:15:54.220Z,99295.59
2023-04-03T15:18:01.254Z,99295.47
2023-04-03T15:20:06.896Z,99290.25
2023-04-03T15:22:16.316Z,99284.13
2023-04-03T15:24:18.977Z,99290.34
2023-04-03T15:26:21.937Z,99286.25
2023-04-03T15:28:38.806Z,99296.34
2023-04-03T15:30:41.744Z,99288.53
2023-04-03T15:32:44.595Z,99298.59
2023-04-03T15:34:47.254Z,99294.50
2023-04-03T15:36:54.062Z,99301.06
2023-04-03T15:38:56.936Z,99302.00
2023-04-03T15:40:59.629Z,99302.09
2023-04-03T15:43:02.483Z,99303.38
2023-04-03T15:45:05.609Z,99308.19
2023-04-03T15:47:08.468Z,99292.44
2023-04-03T15:49:11.190Z,99299.94
2023-04-03T15:51:13.814Z,99308.94
2023-04-03T15:53:16.585Z,99303.69
2023-04-03T15:55:19.369Z,99298.31
2023-04-03T15:57:27.225Z,99313.94
2023-04-03T15:59:31.928Z,99301.44
2023-04-03T16:01:35.202Z,99306.44
2023-04-03T16:03:40.117Z,99314.19
2023-04-03T16:05:43.120Z,99310.44
2023-04-03T16:07:47.058Z,99309.00
2023-04-03T16:09:49.783Z,99310.78
2023-04-03T16:11:52.684Z,99301.81
2023-04-03T16:13:56.343Z,99306.44
2023-04-03T16:15:59.047Z,99296.56
2023-04-03T16:18:02.482Z,99309.84
2023-04-03T16:20:06.694Z,99306.41
2023-04-03T16:22:09.300Z,99312.53
2023-04-03T16:24:12.099Z,99303.50
2023-04-03T16:26:15.456Z,99304.19
2023-04-03T16:28:19.349Z,99312.25
2023-04-03T16:30:22.287Z,99311.69
2023-04-03T16:32:27.975Z,99305.63
2023-04-03T16:34:33.366Z,99307.47
2023-04-03T16:36:36.192Z,99314.72
2023-04-03T16:38:38.896Z,99306.91
2023-04-03T16:40:41.653Z,99302.31
2023-04-03T16:42:44.390Z,99304.03
2023-04-03T16:44:47.081Z,99300.25
2023-04-03T16:46:49.889Z,99306.44
2023-04-03T16:48:52.706Z,99311.03
2023-04-03T16:50:55.476Z,99308.81
2023-04-03T16:52:58.319Z,99309.84
2023-04-03T16:55:00.988Z,99306.19
2023-04-03T16:57:04.165Z,99307.22
2023-04-03T16:59:07.388Z,99308.47
2023-04-03T17:01:14.666Z,99307.78
2023-04-03T17:03:17.519Z,99302.69
2023-04-03T17:05:20.234Z,99292.91
2023-04-03T17:07:24.680Z,99309.91
2023-04-03T17:09:27.489Z,99315.63
2023-04-03T17:11:31.440Z,99317.00
2023-04-03T17:13:34.950Z,99318.13
2023-04-03T17:15:37.955Z,99323.63
2023-04-03T17:17:41.366Z,99321.19
2023-04-03T17:19:44.865Z,99323.34
2023-04-03T17:21:47.758Z,99324.69
2023-04-03T17:23:55.166Z,99322.97
2023-04-03T17:25:58.016Z,99312.16
2023-04-03T17:28:01.161Z,99316.38
2023-04-03T17:30:06.804Z,99318.53
2023-04-03T17:32:09.663Z,99321.97
2023-04-03T17:34:12.964Z,99317.78
2023-04-03T17:36:16.133Z,99322.69
2023-04-03T17:38:19.005Z,99316.91
2023-04-03T17:40:21.718Z,99327.09
2023-04-03T17:42:25.164Z,99316.63
2023-04-03T17:44:28.000Z,99317.47
2023-04-03T17:46:31.447Z,99323.19
2023-04-03T17:48:37.719Z,99322.59
2023-04-03T17:50:40.436Z,99332.31
2023-04-03T17:52:43.501Z,99328.13
2023-04-03T17:54:46.738Z,99327.66
2023-04-03T17:56:49.514Z,99323.28
2023-04-03T17:58:52.454Z,99323.94
2023-04-03T18:00:56.472Z,99324.94
2023-04-03T18:02:59.457Z,99326.13
2023-04-03T18:05:02.237Z,99332.47
2023-04-03T18:07:09.894Z,99324.38
2023-04-03T18:09:15.971Z,99327.78
2023-04-03T18:11:22.028Z,99333.97
2023-04-03T18:13:24.742Z,99333.00
2023-04-03T18:15:27.642Z,99332.03
2023-04-03T18:17:30.682Z,99336.91
2023-04-03T18:19:34.307Z,99333.53
2023-04-03T18:21:37.516Z,99333.72
2023-04-03T18:23:43.462Z,99333.59
2023-04-03T18:25:46.476Z,99336.97
2023-04-03T18:27:49.835Z,99337.31
2023-04-03T18:30:02.976Z,99331.34
2023-04-03T18:32:08.198Z,99334.56
2023-04-03T18:34:12.945Z,99327.31
2023-04-03T18:38:19.273Z,99325.41
2023-04-03T18:40:22.838Z,99319.75
2023-04-03T18:42:27.226Z,99316.50
2023-04-03T18:44:32.481Z,99309.25
2023-04-03T18:48:41.984Z,99309.94
2023-04-03T18:50:45.694Z,99321.41
2023-04-03T18:52:50.844Z,99315.75
2023-04-03T18:54:53.659Z,99324.31
2023-04-03T18:56:56.322Z,99319.97
2023-04-03T18:58:59.331Z,99323.34
2023-04-03T19:01:02.301Z,99321.72
2023-04-03T19:03:06.180Z,99325.13
2023-04-03T19:05:13.368Z,99320.91
2023-04-03T19:07:16.388Z,99318.50
2023-04-03T19:09:19.959Z,99317.53
2023-04-03T19:11:23.306Z,99317.84
2023-04-03T19:13:28.253Z,99315.59
2023-04-03T19:15:32.201Z,99313.81
2023-04-03T19:17:34.931Z,99319.94
2023-04-03T19:19:38.305Z,99311.22
2023-04-03T19:21:42.264Z,99317.84
2023-04-03T19:23:45.205Z,99320.13
2023-04-03T19:25:48.507Z,99314.63
2023-04-03T19:27:51.729Z,99310.75
2023-04-03T19:29:54.592Z,99311.56
2023-04-03T19:31:57.816Z,99313.81
2023-04-03T19:34:01.273Z,99310.88
2023-04-03T19:36:08.139Z,99322.19
2023-04-03T19:38:10.840Z,99310.72
2023-04-03T19:40:14.567Z,99311.03
2023-04-03T19:42:19.063Z,99314.44
2023-04-03T19:44:21.696Z,99317.50
2023-04-03T19:46:28.141Z,99323.13
2023-04-03T19:48:32.922Z,99318.63
2023-04-03T19:50:36.107Z,99305.53
2023-04-03T19:52:39.180Z,99317.47
2023-04-03T19:54:42.123Z,99315.03
2023-04-03T19:56:45.796Z,99320.88
2023-04-03T19:58:54.457Z,99316.34
2023-04-03T20:00:58.714Z,99316.16
2023-04-03T20:03:01.911Z,99316.81
2023-04-03T20:05:05.443Z,99315.00
2023-04-03T20:07:08.128Z,99314.81
2023-04-03T20:09:11.360Z,99317.41
2023-04-03T20:11:14.412Z,99310.44
2023-04-03T20:13:17.206Z,99317.06
2023-04-03T20:15:20.137Z,99311.09
2023-04-03T20:17:22.881Z,99308.66
2023-04-03T20:19:27.102Z,99304.81
2023-04-03T20:21:34.343Z,99308.16
2023-04-03T20:23:37.618Z,99318.63
2023-04-03T20:25:54.082Z,99314.59
2023-04-03T20:28:00.624Z,99312.81
2023-04-03T20:30:04.885Z,99315.38
2023-04-03T20:32:07.603Z,99308.25
2023-04-03T20:34:10.361Z,99308.59
2023-04-03T20:36:13.012Z,99293.25
2023-04-03T20:38:16.658Z,99308.41
2023-04-03T20:40:19.306Z,99301.63
2023-04-03T20:42:22.151Z,99310.19
2023-04-03T20:44:25.100Z,99299.03
2023-04-03T20:46:42.290Z,99302.28
2023-04-03T20:48:52.926Z,99303.38
2023-04-03T20:50:56.054Z,99299.69
2023-04-03T20:52:59.092Z,99301.28
2023-04-03T20:55:01.720Z,99301.63
2023-04-03T20:57:06.135Z,99308.69
2023-04-03T20:59:10.427Z,99301.91
2023-04-03T21:01:16.282Z,99303.03
2023-04-03T21:03:19.587Z,99303.97
2023-04-03T21:05:23.673Z,99301.22
2023-04-03T21:08:04.566Z,99310.28
2023-04-03T21:10:44.631Z,99309.78
2023-04-03T21:13:24.580Z,99306.84
2023-04-03T21:15:55.460Z,99311.66
2023-04-03T21:18:21.360Z,99309.06
2023-04-03T21:20:24.004Z,99311.59
2023-04-03T21:22:27.260Z,99315.16
2023-04-03T21:24:31.564Z,99315.47
2023-04-03T21:26:34.637Z,99312.75
2023-04-03T21:28:37.367Z,99305.31
2023-04-03T21:30:40.269Z,99311.94
2023-04-03T21:32:43.325Z,99311.44
2023-04-03T21:34:46.593Z,99308.69
2023-04-03T21:36:52.915Z,99299.50
2023-04-03T21:38:58.215Z,99311.25
2023-04-03T21:41:01.096Z,99308.81
2023-04-03T21:43:05.310Z,99310.44
2023-04-03T21:45:08.426Z,99311.53
2023-04-03T21:47:11.744Z,99305.28
2023-04-03T21:49:14.666Z,99312.19
2023-04-03T21:51:20.129Z,99313.63
2023-04-03T21:53:23.752Z,99312.59
2023-04-03T21:55:27.162Z,99315.66
2023-04-03T21:57:29.863Z,99314.03
2023-04-03T21:59:32.719Z,99320.63
2023-04-03T22:01:36.311Z,99320.44
2023-04-03T22:03:39.443Z,99326.41
2023-04-03T22:05:42.107Z,99330.56
2023-04-03T22:07:47.978Z,99324.28
2023-04-03T22:09:50.949Z,99318.44
2023-04-03T22:11:53.589Z,99323.94
2023-04-03T22:13:56.423Z,99319.88
2023-04-03T22:15:59.709Z,99330.13
2023-04-03T22:18:02.480Z,99324.78
2023-04-03T22:20:05.777Z,99324.59
2023-04-03T22:22:09.025Z,99321.66
2023-04-03T22:24:11.716Z,99325.63
2023-04-03T22:26:14.613Z,99317.75
2023-04-03T22:28:17.420Z,99327.06
2023-04-03T22:30:20.106Z,99320.28
2023-04-03T22:32:22.877Z,99320.59
2023-04-03T22:34:25.650Z,99321.19
2023-04-03T22:36:28.387Z,99323.75
2023-04-03T22:38:31.359Z,99324.06
2023-04-03T22:40:34.006Z,99323.88
2023-04-03T22:42:36.582Z,99331.88
2023-04-03T22:44:39.790Z,99319.44
2023-04-03T22:46:42.506Z,99329.56
2023-04-03T22:48:48.587Z,99321.75
2023-04-03T22:50:51.820Z,99325.41
2023-04-03T22:52:54.483Z,99338.41
2023-04-03T22:55:01.378Z,99335.47
2023-04-03T22:57:10.105Z,99328.50
2023-04-03T22:59:13.291Z,99331.91
2023-04-03T23:01:16.422Z,99333.44
2023-04-03T23:03:19.737Z,99330.03
2023-04-03T23:05:22.385Z,99331.44
2023-04-03T23:07:24.976Z,99331.22
2023-04-03T23:09:27.579Z,99331.56
2023-04-03T23:11:30.353Z,99334.06
2023-04-03T23:13:33.100Z,99323.44
2023-04-03T23:15:35.971Z,99328.09
2023-04-03T23:17:39.553Z,99332.13
2023-04-03T23:19:42.698Z,99332.47
2023-04-03T23:21:45.988Z,99337.59
2023-04-03T23:23:48.596Z,99330.53
2023-04-03T23:25:59.672Z,99336.28
2023-04-03T23:28:02.473Z,99332.47
2023-04-03T23:30:07.648Z,99323.75
2023-04-03T23:32:10.937Z,99323.25
2023-04-03T23:34:13.824Z,99324.94
2023-04-03T23:36:17.074Z,99323.03
2023-04-03T23:38:19.662Z,99328.81
2023-04-03T23:40:22.318Z,99334.56
2023-04-03T23:42:24.934Z,99330.69
2023-04-03T23:44:27.631Z,99333.16
2023-04-03T23:46:30.378Z,99336.69
2023-04-03T23:48:33.095Z,99326.59
2023-04-03T23:50:35.804Z,99323.94
2023-04-03T23:52:38.488Z,99331.31
2023-04-03T23:54:41.101Z,99334.66
2023-04-03T23:56:43.670Z,99328.97
2023-04-03T23:58:46.516Z,99325.31
